This is the latest recevied weather packets stored in our database for station/object KF4KUL. If no packets are shown the sender has not sent any weather packets the latest 10 day(s).
| Time | Temp. | Humidity | Pressure | Rain* | Wind** | Luminosity | Snow |
|---|---|---|---|---|---|---|---|
| 1777919520 | 27.78° C | 43% | 1015.4 hPa | 0 mm | - | - | - |
| 1777918619 | 27.78° C | 43% | 1015.7 hPa | 0 mm | - | - | - |
| 1777917718 | 27.78° C | 42% | 1015.9 hPa | 0 mm | - | - | - |
| 1777916817 | 26.67° C | 45% | 1015.9 hPa | 0 mm | - | - | - |
| 1777915916 | 27.22° C | 42% | 1016 hPa | 0 mm | - | - | - |
| 1777915015 | 27.22° C | 45% | 1016.1 hPa | 0 mm | - | - | - |
| 1777914114 | 26.67° C | 46% | 1016.4 hPa | 0 mm | - | - | - |
| 1777913213 | 26.67° C | 46% | 1016.6 hPa | 0 mm | - | - | - |
| 1777912312 | 26.67° C | 48% | 1016.7 hPa | 0 mm | - | - | - |
| 1777911411 | 26.11° C | 51% | 1016.8 hPa | 0 mm | - | - | - |
| 1777910510 | 25.56° C | 51% | 1017.1 hPa | 0 mm | - | - | - |
| 1777909609 | 26.11° C | 50% | 1017.2 hPa | 0 mm | - | - | - |
| 1777908708 | 26.11° C | 53% | 1017.2 hPa | 0 mm | - | - | - |
| 1777907807 | 25.56° C | 53% | 1017.2 hPa | 0 mm | - | - | - |
| 1777906906 | 25° C | 53% | 1017.2 hPa | 0 mm | - | - | - |
| 1777906005 | 24.44° C | 54% | 1017.2 hPa | 0 mm | - | - | - |
| 1777905104 | 23.89° C | 58% | 1017.1 hPa | 0 mm | - | - | - |
| 1777904203 | 23.89° C | 60% | 1017.1 hPa | 0 mm | - | - | - |
| 1777903302 | 22.78° C | 63% | 1017.2 hPa | 0 mm | - | - | - |
| 1777902401 | 22.78° C | 65% | 1017.2 hPa | 0 mm | - | - | - |
| 1777901500 | 22.22° C | 67% | 1017.1 hPa | 0 mm | - | - | - |
| 1777900599 | 21.67° C | 69% | 1016.9 hPa | 0 mm | - | - | - |
| 1777899698 | 20.56° C | 70% | 1016.8 hPa | 0 mm | - | - | - |
| 1777898797 | 20° C | 73% | 1016.7 hPa | 0 mm | - | - | - |
| 1777897896 | 18.89° C | 78% | 1016.7 hPa | 0 mm | - | - | - |
* Rain latest hour (hover to see other rain measurements)
** Current wind speed in m/s (hover to see current wind gust speed)